Terminal Aerodrome Forecast
Issued by NWS

Home | Current Version | Previous Version | Text Only | Print | Product List | Glossary On
Versions: 1 2 3 4 5 6 7 8 9 10 11 12 13 14 15 16 17 18 19 20 21
558
FTUS41 KCAR 232320
TAFFVE
TAF
KFVE 232320Z 2400/2424 15009KT P6SM VCSH OVC002
      TEMPO 2400/2402 2SM -SHRA BR
     FM240200 19005KT 2SM -SHRA BR OVC003
     FM241200 VRB03KT P6SM OVC006
     FM241500 28009KT P6SM BKN015
     FM241900 30014G22KT P6SM BKN035=

USA.gov is the U.S. government's official web portal to all federal, state and local government web resources and services.